Flight Track Log - Related Links

Times and Time Zones

All times are in EDT time to prevent confusion due to time zone crossing. See the N800JH flight status page for this flight to view local times or setup timezone preferences in your user account.

Time Position Orientation Groundspeed Altitude Reporting Facility
EDT Latitude Longitude Course Direction KTS MPH feet Rate Location/Type
Sun 01:57:58 PM 39.6233 -106.9583 123° Southeast 207 238 8,500  Level Denver Center
Sun 01:59:00 PM 39.6194 -107.0328 266° West 258 297 11,800 3,339 Climbing Denver Center
Sun 02:00:02 PM 39.7150 -107.0667 345° North 321 369 15,400 3,194 Climbing Denver Center
Sun 02:01:04 PM 39.7992 -107.0047 29° Northeast 390 449 18,400 3,048 Climbing Denver Center
Sun 02:02:00 PM 39.8825 -106.2650 123° Southeast  Level FlightAware Approximate
Sun 02:02:06 PM 39.8336 -106.8581 73° East 425 489 21,700  Level Denver Center
Sun 02:03:00 PM 39.8114 -106.1394 123° Southeast  Level FlightAware Approximate
Sun 02:03:08 PM 39.8342 -106.6931 90° East 451 519 25,000  Level Denver Center
Sun 02:04:10 PM 39.8331 -106.5233 90° East 464 534 27,000 2,274 Climbing Denver Center
Sun 02:05:12 PM 39.8225 -106.3417 94° East 479 551 29,700 2,661 Climbing Denver Center
Sun 02:06:14 PM 39.7469 -106.1914 123° Southeast 492 566 32,500 2,710 Climbing Denver Center
Sun 02:07:16 PM 39.6606 -106.0539 129° Southeast 489 563 35,300 2,710 Climbing Denver Center
Sun 02:08:18 PM 39.5600 -105.8956 129° Southeast 486 559 38,100 2,468 Climbing Denver Center
Sun 02:09:20 PM 39.4733 -105.7575 129° Southeast 491 565 40,400 1,839 Climbing Denver Center
Sun 02:10:22 PM 39.3861 -105.6231 130° Southeast 486 559 41,900 1,113 Climbing Denver Center
Sun 02:11:24 PM 39.2978 -105.4858 130° Southeast 492 566 42,700 871 Climbing Denver Center
Sun 02:12:26 PM 39.2117 -105.3519 130° Southeast 485 558 43,700 968 Climbing Denver Center
Sun 02:13:28 PM 39.1250 -105.2175 130° Southeast 486 559 44,700 1,113 Climbing Denver Center
Sun 02:14:30 PM 39.0239 -105.0606 130° Southeast 486 559 46,000 1,065 Climbing Denver Center
Sun 02:15:32 PM 38.9364 -104.9275 130° Southeast 485 558 46,900 484 Climbing Denver Center
Sun 02:16:34 PM 38.8489 -104.7939 130° Southeast 486 559 47,000 48 Climbing Denver Center
Sun 02:17:36 PM 38.7586 -104.6564 130° Southeast 497 572 47,000  Level Denver Center
Sun 02:18:38 PM 38.6597 -104.5236 134° Southeast 505 581 47,000  Level Denver Center
Sun 02:19:40 PM 38.5653 -104.3981 134° Southeast 490 564 47,000  Level Denver Center
Sun 02:20:42 PM 38.4669 -104.2733 135° Southeast 493 567 47,000  Level Denver Center
Sun 02:21:44 PM 38.3511 -104.1228 134° Southeast 503 579 47,000  Level Denver Center
Sun 02:22:46 PM 38.2528 -103.9939 134° Southeast 493 567 47,000  Level Denver Center
Sun 02:23:48 PM 38.1614 -103.8767 135° Southeast 486 559 47,000  Level Denver Center
Sun 02:24:50 PM 38.0717 -103.7572 134° Southeast 486 559 47,000  Level Denver Center
Sun 02:25:52 PM 37.9658 -103.6161 134° Southeast 491 565 47,000  Level Denver Center
Sun 02:26:54 PM 37.8761 -103.4969 134° Southeast 486 559 47,000  Level Denver Center
Sun 02:27:56 PM 37.7711 -103.3586 134° Southeast 484 557 47,000  Level Denver Center
Sun 02:28:58 PM 37.6872 -103.2336 130° Southeast 485 558 47,000  Level Denver Center
Sun 02:30:00 PM 37.5889 -103.0881 130° Southeast 486 559 47,000  Level Denver Center
Sun 02:31:02 PM 37.5039 -102.9611 130° Southeast 491 565 47,000  Level Denver Center
Sun 02:32:04 PM 37.4186 -102.8375 131° Southeast 489 563 47,000  Level Denver Center
Sun 02:33:05 PM 37.3208 -102.6944 131° Southeast 483 556 47,000  Level Denver Center
Sun 02:33:20 PM 37.3078 -102.6744 129° Southeast 484 557 47,000  Level Albuquerque Center
Sun 02:34:22 PM 37.2086 -102.5294 131° Southeast 487 560 47,000  Level Albuquerque Center
Sun 02:35:12 PM 37.1389 -102.4286 131° Southeast 491 565 47,000  Level Albuquerque Center
Sun 02:36:14 PM 37.0383 -102.2850 131° Southeast 492 566 47,000  Level Albuquerque Center
Sun 02:37:16 PM 36.9542 -102.1614 130° Southeast 491 565 47,000  Level Albuquerque Center
Sun 02:38:18 PM 36.8544 -102.0189 131° Southeast 490 564 47,000  Level Albuquerque Center
Sun 02:39:20 PM 36.7672 -101.8956 131° Southeast 495 570 47,000  Level Albuquerque Center
Sun 02:40:22 PM 36.6664 -101.7514 131° Southeast 495 570 47,000  Level Albuquerque Center
Sun 02:41:24 PM 36.5806 -101.6297 131° Southeast 493 567 47,000  Level Albuquerque Center
Sun 02:42:26 PM 36.4786 -101.4847 131° Southeast 497 572 47,000  Level Albuquerque Center
Sun 02:43:28 PM 36.3908 -101.3625 132° Southeast 497 572 47,000  Level Albuquerque Center
Sun 02:44:30 PM 36.3053 -101.2417 131° Southeast 493 567 47,000  Level Albuquerque Center
Sun 02:45:32 PM 36.1994 -101.0936 132° Southeast 494 568 47,000  Level Albuquerque Center
Sun 02:46:34 PM 36.1078 -100.9661 132° Southeast 494 568 47,000  Level Albuquerque Center
Sun 02:47:36 PM 36.0175 -100.8406 132° Southeast 490 564 47,000  Level Albuquerque Center
Sun 02:48:38 PM 35.9269 -100.7147 132° Southeast 489 563 47,000  Level Albuquerque Center
Sun 02:49:40 PM 35.8358 -100.5906 132° Southeast 489 563 47,000  Level Albuquerque Center
Sun 02:50:42 PM 35.7278 -100.4414 132° Southeast 488 562 47,000  Level Albuquerque Center
Sun 02:51:44 PM 35.6369 -100.3175 132° Southeast 487 560 47,000  Level Albuquerque Center
Sun 02:52:46 PM 35.5469 -100.1956 132° Southeast 485 558 47,000  Level Albuquerque Center
Sun 02:53:48 PM 35.4564 -100.0733 132° Southeast 483 556 47,000  Level Albuquerque Center
Sun 02:54:50 PM 35.3658 -99.9506 132° Southeast 485 558 47,000  Level Albuquerque Center
Sun 02:55:52 PM 35.2747 -99.8278 132° Southeast 488 562 47,000  Level Albuquerque Center
Sun 02:56:54 PM 35.1656 -99.6817 132° Southeast 486 559 47,000  Level Albuquerque Center
Sun 02:57:30 PM 35.1094 -99.6089 133° Southeast 483 556 47,000  Level Fort Worth Center
Sun 02:58:30 PM 35.0178 -99.4847 132° Southeast 488 562 47,000  Level Fort Worth Center
Sun 02:59:30 PM 34.9217 -99.3658 135° Southeast 488 562 47,000 -300 Level Fort Worth Center
Sun 03:00:30 PM 34.7953 -99.3025 158° South 483 556 46,400 -750 Descending Fort Worth Center
Sun 03:01:30 PM 34.6731 -99.2517 161° South 466 536 45,500 -900 Descending Fort Worth Center
Sun 03:02:30 PM 34.5506 -99.2061 163° South 466 536 44,600 -1,050 Descending Fort Worth Center
Sun 03:03:30 PM 34.4242 -99.1558 162° South 471 542 43,400 -1,050 Descending Fort Worth Center
Sun 03:04:30 PM 34.3267 -99.1161 161° South 471 542 42,500 -1,800 Descending Fort Worth Center
Sun 03:05:30 PM 34.2089 -99.0208 146° Southeast 466 536 39,800 -2,650 Descending Fort Worth Center
Sun 03:06:30 PM 34.1417 -98.8789 120° Southeast 461 531 37,200 -2,400 Descending Fort Worth Center
Sun 03:07:30 PM 34.0744 -98.7350 119° Southeast 468 539 35,000 -1,950 Descending Fort Worth Center
Sun 03:08:30 PM 34.0069 -98.5936 120° Southeast 485 558 33,300 -2,250 Descending Fort Worth Center
Sun 03:09:30 PM 33.9394 -98.4600 121° Southeast 485 558 30,500 -2,700 Descending Fort Worth Center
Sun 03:10:30 PM 33.8778 -98.3242 119° Southeast 473 544 27,900 -2,500 Descending Fort Worth Center
Sun 03:11:30 PM 33.8161 -98.2008 121° Southeast 440 506 25,500 -2,350 Descending Fort Worth Center
Sun 03:12:30 PM 33.7522 -98.0756 121° Southeast 413 475 23,200 -2,300 Descending Fort Worth Center
Sun 03:13:30 PM 33.6983 -97.9628 120° Southeast 402 463 20,900 -2,200 Descending Fort Worth Center
Sun 03:14:30 PM 33.6444 -97.8575 122° Southeast 386 444 18,800 -2,150 Descending Fort Worth Center
Sun 03:15:30 PM 33.5928 -97.7525 121° Southeast 374 430 16,600 -2,150 Descending Fort Worth Center
Sun 03:16:30 PM 33.5386 -97.6478 122° Southeast 368 423 14,500 -2,050 Descending Fort Worth Center
Sun 03:17:30 PM 33.4886 -97.5456 120° Southeast 363 418 12,500 -1,850 Descending Fort Worth Center
Sun 03:18:30 PM 33.4428 -97.4633 124° Southeast 343 395 10,800 -1,600 Descending Fort Worth Center
Sun 03:19:30 PM 33.3950 -97.3736 123° Southeast 308 354 9,300 -1,300 Descending Fort Worth Center
Sun 03:20:30 PM 33.3886 -97.2867 95° East 285 328 8,200 -1,150 Descending Fort Worth Center
Sun 03:21:30 PM 33.3864 -97.1797 91° East 285 328 7,000 -1,100 Descending Fort Worth Center
Sun 03:22:30 PM 33.3800 -97.0925 95° East 275 316 6,000 -1,050 Descending Fort Worth Center
Sun 03:23:30 PM 33.3756 -97.0106 94° East 255 293 4,900 -1,000 Descending Fort Worth Center
Sun 03:24:30 PM 33.3275 -96.9858 157° South 175 201 4,000 -850 Descending Fort Worth Center
Sun 03:25:30 PM 33.2606 -96.9686 168° South 213 245 3,200 -500 Descending Fort Worth Center
Sun 03:26:30 PM 33.2061 -96.9442 159° South 236 272 3,000 -100 Descending Fort Worth Center
Sun 03:27:30 PM 33.1414 -96.9172 161° South 236 272 3,000  Level Fort Worth Center
Sun 03:28:30 PM 33.0911 -96.8953 160° South 225 259 3,000 -450 Level Fort Worth Center
Sun 03:29:30 PM 33.0431 -96.8708 157° South 186 214 2,100 -800 Descending Fort Worth Center
Sun 03:30:30 PM 33.0158 -96.8586 159° South 138 159 1,400 -700 Descending Fort Worth Center
Sun 03:32:00 PM 32.9667 -96.8333 128° Southeast  Level FlightAware Approximate
Sun 03:39:00 PM 32.9686 -96.8364 128° Southeast  Level Estimated

Login

Don't have an account? Register now (free) for customized features, flight alerts, and more!